createdAt,value
2018-09-26T00:00:14.715Z,2.15
2018-09-26T00:02:44.749Z,2.11
2018-09-26T00:05:13.781Z,2.10
2018-09-26T00:07:42.877Z,2.10
2018-09-26T00:10:11.909Z,2.12
2018-09-26T00:12:40.950Z,2.12
2018-09-26T00:15:09.985Z,2.17
2018-09-26T00:17:39.034Z,2.19
2018-09-26T00:20:08.070Z,2.22
2018-09-26T00:22:37.109Z,2.33
2018-09-26T00:25:07.156Z,2.45
2018-09-26T00:27:37.158Z,2.80
2018-09-26T00:30:06.202Z,3.00
2018-09-26T00:32:35.293Z,2.98
2018-09-26T00:35:04.324Z,3.03
2018-09-26T00:37:33.352Z,3.01
2018-09-26T00:40:02.394Z,2.97
2018-09-26T00:42:31.420Z,2.96
2018-09-26T00:45:00.497Z,2.94
2018-09-26T00:47:29.521Z,2.82
2018-09-26T00:49:58.554Z,2.59
2018-09-26T00:52:27.578Z,2.63
2018-09-26T00:57:33.320Z,2.53
2018-09-26T01:00:02.357Z,2.42
2018-09-26T01:02:31.405Z,2.09
2018-09-26T01:05:00.436Z,1.89
2018-09-26T01:07:29.456Z,1.95
2018-09-26T01:09:58.504Z,1.96
2018-09-26T01:12:27.534Z,1.98
2018-09-26T01:14:56.576Z,2.08
2018-09-26T01:17:27.556Z,2.02
2018-09-26T01:19:57.613Z,1.95
2018-09-26T01:25:02.372Z,1.91
2018-09-26T01:27:32.358Z,2.00
2018-09-26T01:30:01.423Z,1.88
2018-09-26T01:32:31.469Z,1.85
2018-09-26T01:35:00.504Z,1.83
2018-09-26T01:37:29.528Z,1.61
2018-09-26T01:39:58.590Z,1.63
2018-09-26T01:42:27.616Z,1.55
2018-09-26T01:44:58.716Z,1.59
2018-09-26T01:47:27.745Z,1.72
2018-09-26T01:49:56.863Z,1.65
2018-09-26T01:52:26.830Z,1.59
2018-09-26T01:54:55.868Z,1.43
2018-09-26T01:57:24.888Z,1.44
2018-09-26T01:59:53.940Z,1.48
2018-09-26T02:02:26.508Z,1.82
2018-09-26T02:04:55.702Z,1.70
2018-09-26T02:14:09.840Z,1.45
2018-09-26T02:16:42.932Z,1.45
2018-09-26T02:19:15.828Z,1.40
2018-09-26T02:21:44.868Z,1.31
2018-09-26T02:24:13.906Z,1.39
2018-09-26T02:26:42.933Z,1.36
2018-09-26T02:29:11.976Z,1.39
2018-09-26T02:31:41.020Z,1.32
2018-09-26T02:34:10.052Z,1.43
2018-09-26T02:36:39.104Z,1.43
2018-09-26T02:39:08.151Z,1.40
2018-09-26T02:41:37.172Z,1.23
2018-09-26T02:44:06.301Z,1.10
2018-09-26T02:46:35.472Z,1.12
2018-09-26T02:49:04.503Z,1.31
2018-09-26T02:51:33.542Z,1.39
2018-09-26T02:54:02.572Z,1.23
2018-09-26T02:56:31.620Z,1.27
2018-09-26T02:59:01.626Z,1.28
2018-09-26T03:01:30.657Z,1.25
2018-09-26T03:03:59.704Z,1.27
2018-09-26T03:06:28.736Z,1.59
2018-09-26T03:11:33.501Z,2.26
2018-09-26T03:14:04.509Z,2.39
2018-09-26T03:16:35.552Z,2.31
2018-09-26T03:19:04.598Z,2.39
2018-09-26T03:21:33.676Z,2.34
2018-09-26T03:24:02.774Z,2.27
2018-09-26T03:26:31.778Z,2.25
2018-09-26T03:29:01.779Z,2.36
2018-09-26T03:31:30.845Z,2.28
2018-09-26T03:33:59.888Z,2.10
2018-09-26T03:36:29.060Z,2.03
2018-09-26T03:41:34.996Z,1.99
2018-09-26T03:44:04.036Z,1.83
2018-09-26T03:46:33.081Z,1.80
2018-09-26T03:49:03.067Z,1.67
2018-09-26T03:51:33.062Z,1.72
2018-09-26T03:54:02.184Z,1.69
2018-09-26T03:56:31.164Z,1.81
2018-09-26T03:59:00.203Z,1.83
2018-09-26T04:01:30.559Z,2.03
2018-09-26T04:03:59.611Z,2.09
2018-09-26T04:06:28.645Z,2.23
2018-09-26T04:08:57.692Z,2.18
2018-09-26T04:11:26.717Z,2.18
2018-09-26T04:16:31.498Z,2.10
2018-09-26T04:19:00.552Z,2.34
2018-09-26T04:21:31.586Z,2.15
2018-09-26T04:24:00.624Z,2.23
2018-09-26T04:26:30.665Z,2.38
2018-09-26T04:28:59.667Z,2.37
2018-09-26T04:31:28.658Z,2.19
2018-09-26T04:33:57.725Z,2.14
2018-09-26T04:36:27.728Z,2.22
2018-09-26T04:38:56.860Z,2.38
2018-09-26T04:41:25.801Z,2.05
2018-09-26T04:43:54.844Z,2.01
2018-09-26T04:46:23.905Z,1.89
2018-09-26T04:48:52.949Z,1.90
2018-09-26T04:51:23.965Z,2.05
2018-09-26T04:53:53.902Z,2.18
2018-09-26T04:58:58.674Z,2.18
2018-09-26T05:01:28.645Z,2.32
2018-09-26T05:03:57.705Z,2.23
2018-09-26T05:06:26.742Z,2.06
2018-09-26T05:08:55.788Z,2.01
2018-09-26T05:11:24.801Z,2.08
2018-09-26T05:13:53.837Z,2.10
2018-09-26T05:16:22.868Z,1.96
2018-09-26T05:18:51.893Z,1.96
2018-09-26T05:21:20.940Z,1.97
2018-09-26T05:23:50.004Z,2.10
2018-09-26T05:26:19.180Z,2.26
2018-09-26T05:28:50.171Z,2.35
2018-09-26T05:31:19.228Z,2.51
2018-09-26T05:33:48.270Z,2.62
2018-09-26T05:36:18.333Z,2.73
2018-09-26T05:41:24.577Z,2.83
2018-09-26T05:43:53.604Z,2.70
2018-09-26T05:46:23.609Z,2.59
2018-09-26T05:48:52.778Z,2.54
2018-09-26T05:51:21.819Z,2.51
2018-09-26T05:56:39.969Z,2.75
2018-09-26T05:59:23.309Z,2.88
2018-09-26T06:02:03.378Z,3.14
2018-09-26T06:04:44.553Z,3.32
2018-09-26T06:07:13.732Z,3.16
2018-09-26T06:12:18.500Z,3.32
2018-09-26T06:14:49.912Z,3.32
2018-09-26T06:17:18.945Z,3.21
2018-09-26T06:19:51.712Z,3.32
2018-09-26T06:22:20.751Z,3.29
2018-09-26T06:24:50.852Z,3.29
2018-09-26T06:27:20.728Z,3.38
2018-09-26T06:29:49.750Z,3.49
2018-09-26T06:32:18.788Z,3.52
2018-09-26T06:34:47.826Z,3.55
2018-09-26T06:37:16.868Z,3.75
2018-09-26T06:39:45.937Z,3.63
2018-09-26T06:42:15.026Z,3.63
2018-09-26T06:44:46.062Z,3.54
2018-09-26T06:47:18.807Z,3.49
2018-09-26T06:49:47.857Z,3.62
2018-09-26T06:52:16.887Z,3.90
2018-09-26T06:54:45.925Z,4.04
2018-09-26T06:57:14.970Z,4.08
2018-09-26T06:59:44.016Z,4.26
2018-09-26T07:04:48.743Z,4.77
2018-09-26T07:07:17.822Z,4.97
2018-09-26T07:09:46.859Z,5.26
2018-09-26T07:14:51.581Z,5.74
2018-09-26T07:17:20.897Z,5.99
2018-09-26T07:19:49.961Z,6.16
2018-09-26T07:22:19.138Z,6.30
2018-09-26T07:24:48.147Z,6.34
2018-09-26T07:27:19.084Z,6.21
2018-09-26T07:32:28.416Z,6.25
2018-09-26T07:37:33.217Z,6.46
2018-09-26T07:40:02.248Z,6.70
2018-09-26T07:45:07.089Z,6.85
2018-09-26T07:47:36.125Z,6.83
2018-09-26T07:50:05.156Z,7.19
2018-09-26T07:52:34.180Z,7.30
2018-09-26T07:55:03.217Z,7.42
2018-09-26T07:57:32.237Z,7.54
2018-09-26T08:00:01.330Z,7.80
2018-09-26T08:05:06.073Z,8.44
2018-09-26T08:07:37.114Z,8.41
2018-09-26T08:10:06.148Z,8.60
2018-09-26T08:12:36.293Z,8.69
2018-09-26T08:15:05.338Z,8.94
2018-09-26T08:17:34.371Z,9.03
2018-09-26T08:20:03.401Z,9.09
2018-09-26T08:22:32.465Z,9.45
2018-09-26T08:25:01.512Z,9.72
2018-09-26T08:27:30.581Z,10.01
2018-09-26T08:32:36.354Z,11.01
2018-09-26T08:35:05.400Z,11.27
2018-09-26T08:37:34.448Z,11.17
2018-09-26T08:42:39.210Z,12.03
2018-09-26T08:45:10.229Z,12.40
2018-09-26T08:47:39.523Z,12.13
2018-09-26T08:50:08.567Z,13.54
2018-09-26T08:52:37.821Z,14.67
2018-09-26T08:55:06.881Z,17.30
2018-09-26T08:57:35.988Z,18.41
2018-09-26T09:00:05.049Z,20.29
2018-09-26T09:05:09.908Z,23.89
2018-09-26T09:07:38.956Z,25.63
2018-09-26T09:12:43.756Z,26.21
2018-09-26T09:15:12.814Z,26.10
2018-09-26T09:17:44.000Z,25.09
2018-09-26T09:20:13.072Z,25.50
2018-09-26T09:22:42.058Z,26.26
2018-09-26T09:25:11.117Z,27.20
2018-09-26T09:30:15.964Z,29.29
2018-09-26T09:32:45.008Z,28.62
2018-09-26T09:35:15.130Z,29.00
2018-09-26T09:37:44.176Z,29.38
2018-09-26T09:40:13.264Z,29.44
2018-09-26T09:42:42.392Z,25.51
2018-09-26T09:45:11.468Z,29.63
2018-09-26T09:47:40.566Z,31.75
2018-09-26T09:50:09.651Z,32.01
2018-09-26T09:52:38.665Z,32.26
2018-09-26T09:55:07.723Z,28.52
2018-09-26T09:57:36.784Z,30.30
2018-09-26T10:00:05.838Z,31.20
2018-09-26T10:02:34.985Z,33.20
2018-09-26T10:05:04.126Z,34.24
2018-09-26T10:07:33.184Z,32.66
2018-09-26T10:10:02.454Z,31.75
2018-09-26T10:12:31.517Z,32.17
2018-09-26T10:15:00.566Z,32.27
2018-09-26T10:17:29.685Z,32.58
2018-09-26T10:19:58.695Z,32.96
2018-09-26T10:22:27.733Z,31.84
2018-09-26T10:24:57.728Z,32.32
2018-09-26T10:30:02.664Z,32.76
2018-09-26T10:32:31.740Z,32.83
2018-09-26T10:37:41.754Z,34.09
2018-09-26T10:40:10.829Z,35.55
2018-09-26T10:45:15.757Z,31.92
2018-09-26T10:47:44.805Z,32.91
2018-09-26T10:50:13.872Z,32.34
2018-09-26T10:55:22.535Z,33.60
2018-09-26T11:00:27.441Z,30.96
2018-09-26T11:02:56.514Z,32.35
2018-09-26T11:05:25.558Z,33.91
2018-09-26T11:07:58.781Z,33.82
2018-09-26T11:10:27.969Z,34.09
2018-09-26T11:12:56.893Z,33.00
2018-09-26T11:15:26.041Z,33.11
2018-09-26T11:20:30.777Z,34.82
2018-09-26T11:23:00.761Z,33.41
2018-09-26T11:25:29.833Z,32.89
2018-09-26T11:27:58.877Z,33.70
2018-09-26T11:30:27.987Z,35.72
2018-09-26T11:32:58.998Z,34.95
2018-09-26T11:35:28.048Z,32.05
2018-09-26T11:37:57.111Z,34.65
2018-09-26T11:40:26.189Z,36.25
2018-09-26T11:45:31.096Z,29.49
2018-09-26T11:50:41.212Z,37.24
2018-09-26T11:53:13.794Z,37.16
2018-09-26T11:55:43.573Z,34.44
2018-09-26T11:58:12.633Z,34.04
2018-09-26T12:00:41.680Z,36.99
2018-09-26T12:05:46.636Z,38.51
2018-09-26T12:08:15.695Z,39.48
2018-09-26T12:10:44.741Z,34.60
2018-09-26T12:13:13.791Z,34.15
2018-09-26T12:15:44.795Z,35.64
2018-09-26T12:18:13.925Z,35.70
2018-09-26T12:20:42.913Z,35.66
2018-09-26T12:23:15.673Z,31.85
2018-09-26T12:25:44.727Z,33.88
2018-09-26T12:30:49.682Z,35.92
2018-09-26T12:35:54.545Z,35.19
2018-09-26T12:38:23.607Z,35.33
2018-09-26T12:40:52.819Z,37.35
2018-09-26T12:43:21.857Z,37.88
2018-09-26T12:45:50.919Z,36.81
2018-09-26T12:48:20.037Z,37.18
2018-09-26T12:50:49.033Z,38.12
2018-09-26T12:55:53.884Z,34.50
2018-09-26T12:58:24.208Z,30.88
2018-09-26T13:00:55.207Z,32.08
2018-09-26T13:03:24.259Z,35.68
2018-09-26T13:08:29.195Z,38.95
2018-09-26T13:13:33.959Z,38.77
2018-09-26T13:18:43.722Z,37.98
2018-09-26T13:21:12.765Z,34.64
2018-09-26T13:23:43.832Z,36.35
2018-09-26T13:26:12.872Z,33.28
2018-09-26T13:31:18.061Z,37.88
2018-09-26T13:33:47.108Z,37.80
2018-09-26T13:36:16.203Z,38.89
2018-09-26T13:38:45.217Z,35.89
2018-09-26T13:43:50.050Z,35.47
2018-09-26T13:46:19.240Z,35.72
2018-09-26T13:48:48.165Z,35.27
2018-09-26T13:53:57.043Z,36.86
2018-09-26T13:56:26.086Z,34.29
2018-09-26T13:58:55.146Z,33.74
2018-09-26T14:06:35.805Z,34.24
2018-09-26T14:09:04.892Z,33.70
2018-09-26T14:11:33.963Z,33.69
2018-09-26T14:14:03.028Z,33.63
2018-09-26T14:16:33.989Z,34.66
2018-09-26T14:19:03.045Z,34.87
2018-09-26T14:21:32.102Z,34.78
2018-09-26T14:24:01.142Z,35.83
2018-09-26T14:26:30.191Z,35.16
2018-09-26T14:29:03.702Z,35.17
2018-09-26T14:31:33.712Z,35.18
2018-09-26T14:34:02.761Z,34.93
2018-09-26T14:36:31.866Z,34.08
2018-09-26T14:39:01.012Z,35.79
2018-09-26T14:41:29.983Z,34.75
2018-09-26T14:44:00.953Z,34.18
2018-09-26T14:46:29.993Z,34.30
2018-09-26T14:48:59.041Z,31.06
2018-09-26T14:51:28.115Z,28.91
2018-09-26T14:53:57.214Z,31.37
2018-09-26T14:56:26.307Z,32.85
2018-09-26T14:58:56.248Z,33.54
2018-09-26T15:01:26.393Z,28.21
2018-09-26T15:03:55.446Z,29.21
2018-09-26T15:06:24.811Z,28.13
2018-09-26T15:08:53.789Z,26.93
2018-09-26T15:11:22.838Z,26.62
2018-09-26T15:13:51.885Z,25.87
2018-09-26T15:16:22.004Z,25.16
2018-09-26T15:18:52.960Z,24.93
2018-09-26T15:21:22.001Z,24.50
2018-09-26T15:23:51.149Z,24.55
2018-09-26T15:28:55.961Z,24.10
2018-09-26T15:31:25.216Z,23.51
2018-09-26T15:36:30.061Z,23.79
2018-09-26T15:38:59.115Z,23.55
2018-09-26T15:41:29.243Z,22.74
2018-09-26T15:43:58.221Z,22.60
2018-09-26T15:46:27.269Z,22.61
2018-09-26T15:48:56.488Z,22.32
2018-09-26T15:54:01.315Z,21.68
2018-09-26T15:56:30.360Z,21.44
2018-09-26T16:01:35.229Z,21.20
2018-09-26T16:04:04.370Z,21.05
2018-09-26T16:06:33.519Z,20.89
2018-09-26T16:09:02.580Z,20.71
2018-09-26T16:11:31.630Z,20.12
2018-09-26T16:14:00.767Z,19.84
2018-09-26T16:16:29.806Z,19.73
2018-09-26T16:18:59.056Z,19.38
2018-09-26T16:21:28.105Z,19.11
2018-09-26T16:23:57.161Z,18.94
2018-09-26T16:26:26.267Z,18.55
2018-09-26T16:28:55.305Z,18.17
2018-09-26T16:34:00.098Z,17.92
2018-09-26T16:36:29.130Z,17.26
2018-09-26T16:39:00.233Z,17.15
2018-09-26T16:41:29.220Z,16.60
2018-09-26T16:43:58.260Z,16.28
2018-09-26T16:46:27.374Z,16.17
2018-09-26T16:48:56.395Z,15.79
2018-09-26T16:51:26.526Z,15.87
2018-09-26T17:01:43.961Z,14.76
2018-09-26T17:04:13.133Z,14.27
2018-09-26T17:06:42.177Z,13.86
2018-09-26T17:09:15.160Z,13.65
2018-09-26T17:11:47.338Z,13.48
2018-09-26T17:14:16.421Z,13.34
2018-09-26T17:16:45.422Z,13.23
2018-09-26T17:19:14.470Z,13.22
2018-09-26T17:21:43.524Z,13.02
2018-09-26T17:24:12.583Z,12.87
2018-09-26T17:26:41.623Z,12.66
2018-09-26T17:29:13.201Z,12.26
2018-09-26T17:31:42.225Z,12.12
2018-09-26T17:34:11.291Z,11.96
2018-09-26T17:36:40.324Z,12.16
2018-09-26T17:39:09.370Z,12.14
2018-09-26T17:41:41.652Z,11.96
2018-09-26T17:44:10.676Z,11.94
2018-09-26T17:46:39.734Z,11.90
2018-09-26T17:49:08.803Z,11.84
2018-09-26T17:51:37.831Z,11.97
2018-09-26T17:54:07.957Z,11.84
2018-09-26T17:56:40.325Z,11.80
2018-09-26T17:59:09.425Z,11.72
2018-09-26T18:01:38.465Z,11.53
2018-09-26T18:06:43.704Z,11.13
2018-09-26T18:09:12.793Z,10.97
2018-09-26T18:11:41.801Z,10.88
2018-09-26T18:14:10.848Z,10.59
2018-09-26T18:16:39.886Z,10.37
2018-09-26T18:19:08.926Z,10.41
2018-09-26T18:21:38.044Z,10.45
2018-09-26T18:26:42.884Z,10.50
2018-09-26T18:29:11.925Z,10.50
2018-09-26T18:31:40.973Z,10.49
2018-09-26T18:34:10.014Z,10.42
2018-09-26T18:36:39.087Z,10.39
2018-09-26T18:41:47.374Z,10.26
2018-09-26T18:44:16.444Z,10.36
2018-09-26T18:46:45.528Z,10.46
2018-09-26T18:49:26.401Z,10.64
2018-09-26T18:51:57.062Z,10.66
2018-09-26T18:54:27.061Z,10.37
2018-09-26T18:56:56.148Z,10.07
2018-09-26T18:59:25.256Z,9.95
2018-09-26T19:01:54.220Z,9.91
2018-09-26T19:04:23.272Z,9.83
2018-09-26T19:09:28.058Z,10.02
2018-09-26T19:11:59.113Z,9.75
2018-09-26T19:14:28.097Z,9.76
2018-09-26T19:16:57.152Z,9.68
2018-09-26T19:19:26.198Z,9.58
2018-09-26T19:21:56.866Z,9.49
2018-09-26T19:24:25.904Z,9.41
2018-09-26T19:26:54.979Z,9.52
2018-09-26T19:29:23.983Z,9.48
2018-09-26T19:31:53.054Z,9.36
2018-09-26T19:34:24.020Z,9.31
2018-09-26T19:36:53.061Z,9.40
2018-09-26T19:39:23.040Z,9.57
2018-09-26T19:41:52.181Z,9.70
2018-09-26T19:44:25.138Z,9.74
2018-09-26T19:46:57.007Z,9.79
2018-09-26T19:52:02.036Z,9.94
2018-09-26T19:54:32.018Z,9.86
2018-09-26T19:57:01.943Z,9.62
2018-09-26T20:02:06.742Z,9.63
2018-09-26T20:04:35.727Z,9.62
2018-09-26T20:09:40.529Z,9.76
2018-09-26T20:12:09.570Z,9.80
2018-09-26T20:17:14.378Z,9.76
2018-09-26T20:19:43.449Z,9.82
2018-09-26T20:22:12.465Z,9.75
2018-09-26T20:24:43.474Z,9.71
2018-09-26T20:27:12.665Z,9.61
2018-09-26T20:29:42.694Z,9.52
2018-09-26T20:32:11.532Z,9.57
2018-09-26T20:34:40.568Z,9.60
2018-09-26T20:37:09.675Z,9.67
2018-09-26T20:39:38.636Z,9.68
2018-09-26T20:42:07.693Z,9.78
2018-09-26T20:44:37.685Z,9.70
2018-09-26T20:49:43.415Z,9.75
2018-09-26T20:52:12.492Z,9.72
2018-09-26T20:54:41.525Z,9.70
2018-09-26T20:59:46.764Z,9.76
2018-09-26T21:02:15.952Z,9.71
2018-09-26T21:04:44.993Z,9.68
2018-09-26T21:09:50.765Z,9.65
2018-09-26T21:14:55.506Z,9.47
2018-09-26T21:17:25.493Z,9.53
2018-09-26T21:19:54.516Z,9.60
2018-09-26T21:22:24.499Z,9.56
2018-09-26T21:24:53.547Z,9.59
2018-09-26T21:29:58.273Z,9.59
2018-09-26T21:32:30.602Z,9.59
2018-09-26T21:37:39.049Z,9.47
2018-09-26T21:42:43.921Z,9.17
2018-09-26T21:45:12.991Z,9.08
2018-09-26T21:47:42.102Z,8.97
2018-09-26T21:50:11.167Z,8.95
2018-09-26T21:52:40.215Z,8.82
2018-09-26T21:55:09.229Z,8.75
2018-09-26T21:57:39.208Z,8.65
2018-09-26T22:08:18.700Z,8.70
2018-09-26T22:10:47.865Z,8.70
2018-09-26T22:15:52.671Z,8.74
2018-09-26T22:18:21.816Z,8.73
2018-09-26T22:23:26.677Z,8.93
2018-09-26T22:25:55.798Z,8.89
2018-09-26T22:28:24.952Z,8.75
2018-09-26T22:30:55.268Z,8.64
2018-09-26T22:33:24.394Z,8.65
2018-09-26T22:35:53.493Z,8.59
2018-09-26T22:40:58.305Z,8.53
2018-09-26T22:43:28.397Z,8.53
2018-09-26T22:45:57.668Z,8.42
2018-09-26T22:48:26.800Z,8.33
2018-09-26T22:50:56.993Z,8.24
2018-09-26T22:53:26.106Z,8.33
2018-09-26T22:58:30.923Z,8.48
2018-09-26T23:01:00.001Z,8.51
2018-09-26T23:03:31.091Z,8.46
2018-09-26T23:06:01.152Z,8.46
2018-09-26T23:08:30.244Z,8.43
2018-09-26T23:10:59.345Z,8.43
2018-09-26T23:13:28.436Z,8.53
2018-09-26T23:15:57.563Z,8.60
2018-09-26T23:18:27.636Z,8.56
2018-09-26T23:23:32.441Z,8.48
2018-09-26T23:26:01.531Z,8.39
2018-09-26T23:31:06.391Z,8.37
2018-09-26T23:33:35.591Z,8.40
2018-09-26T23:36:09.141Z,8.40
2018-09-26T23:41:13.949Z,8.35
2018-09-26T23:43:43.047Z,8.33
2018-09-26T23:46:12.132Z,8.34
2018-09-26T23:53:52.739Z,8.41
2018-09-26T23:58:57.583Z,8.36
